Time;durP1;ratioP1;P1;durP2;ratioP2;P2;SDS_P1;SDS_P2;PMS_P1;PMS_P2;Temp;Humidity;BMP_temperature;BMP_pressure;BME280_temperature;BME280_humidity;BME280_pressure;Samples;Min_cycle;Max_cycle;Signal;HPM_P1;HPM_P2
2022/01/25 00:15:11;;;;;;;;;;;;;;;-144.99;98.36;52709.00;5028127;28;20409;-63
2022/01/25 00:26:03;;;;;;;;;;;;;;;-144.99;99.67;52686.59;5025600;28;20011;-62
2022/01/25 00:28:43;;;;;;;;;;;;;;;-144.99;99.77;52686.59;5023875;28;20027;-62
2022/01/25 00:31:13;;;;;;;;;;;;;;;-144.99;99.03;52668.22;5033130;28;19931;-63
2022/01/25 00:33:40;;;;;;;;;;;;;;;-144.99;99.60;52658.03;5029434;28;19928;-62
2022/01/25 00:36:08;;;;;;;;;;;;;;;-144.99;99.71;52688.63;5030834;28;19921;-64
2022/01/25 00:38:36;;;;;;;;;;;;;;;-144.99;99.85;52700.84;5030305;28;20446;-65
2022/01/25 00:41:02;;;;;;;;;;;;;;;-144.99;99.86;52662.13;5034611;28;19960;-62
2022/01/25 00:43:30;;;;;;;;;;;;;;;-144.99;100.00;52688.63;5034950;28;20406;-62
2022/01/25 00:45:59;;;;;;;;;;;;;;;-144.99;100.00;52713.09;5029453;28;20503;-64
2022/01/25 00:48:40;;;;;;;;;;;;;;;-144.99;99.61;52700.84;5030903;28;19925;-65
2022/01/25 00:51:19;;;;;;;;;;;;;;;-144.99;100.00;52672.31;5029097;28;19924;-63
2022/01/25 00:53:56;;;;;;;;;;;;;;;-144.99;99.87;52688.63;5029356;28;20620;-61
2022/01/25 00:56:22;;;;;;;;;;;;;;;-144.99;99.36;52704.94;5025393;28;20134;-63
2022/01/25 00:58:49;;;;;;;;;;;;;;;-144.99;99.31;52680.47;5029299;28;19921;-64
2022/01/25 01:01:15;;;;;;;;;;;;;;;-144.99;99.46;52741.63;5029111;28;19990;-63
2022/01/25 01:03:41;;;;;;;;;;;;;;;-144.99;99.68;52672.31;5029488;28;19921;-65
2022/01/25 01:06:08;;;;;;;;;;;;;;;-144.99;99.84;52713.09;5027622;28;19925;-64
2022/01/25 01:08:34;;;;;;;;;;;;;;;-144.99;99.85;52706.97;5028549;28;19921;-64
2022/01/25 01:11:06;;;;;;;;;;;;;;;-144.99;100.00;52688.63;5027386;28;20421;-63
2022/01/25 01:13:52;;;;;;;;;;;;;;;-144.99;99.86;52717.16;5025798;28;19928;-63
2022/01/25 01:30:17;;;;;;;;;;;;;;;-144.99;100.00;52717.16;5047717;28;19969;-58
2022/01/25 01:33:12;;;;;;;;;;;;;;;-144.99;100.00;52688.63;5047386;28;19973;-58
2022/01/25 01:36:30;;;;;;;;;;;;;;;-144.99;100.00;52688.63;5042892;28;20234;-59
2022/01/25 01:44:38;;;;;;;;;;;;;;;-144.99;100.00;52692.69;4992310;28;19928;-58
2022/01/25 01:47:08;;;;;;;;;;;;;;;-144.99;100.00;52704.94;5042252;28;19939;-59
2022/01/25 01:49:40;;;;;;;;;;;;;;;-144.99;100.00;52664.16;5046061;28;20347;-58
2022/01/25 01:52:07;;;;;;;;;;;;;;;-144.99;100.00;52709.00;5043990;28;19948;-58
2022/01/25 01:54:33;;;;;;;;;;;;;;;-144.99;100.00;52696.78;5041226;28;19935;-55
2022/01/25 01:57:00;;;;;;;;;;;;;;;-144.99;100.00;52717.16;5042993;28;19920;-56
2022/01/25 01:59:27;;;;;;;;;;;;;;;-144.99;100.00;52668.22;5041670;28;19932;-57
2022/01/25 02:01:54;;;;;;;;;;;;;;;-144.99;100.00;52680.47;5043787;28;20031;-62
2022/01/25 02:04:20;;;;;;;;;;;;;;;-144.99;100.00;52704.94;5042817;28;19961;-62
2022/01/25 02:06:47;;;;;;;;;;;;;;;-144.99;100.00;52709.00;5045381;28;20380;-58
2022/01/25 02:09:14;;;;;;;;;;;;;;;-144.99;100.00;52668.22;5042117;28;19925;-57
2022/01/25 02:11:40;;;;;;;;;;;;;;;-144.99;100.00;52700.84;5046344;28;19927;-56
2022/01/25 02:14:09;;;;;;;;;;;;;;;-144.99;100.00;52698.81;5043368;28;19921;-59
2022/01/25 02:16:54;;;;;;;;;;;;;;;-144.99;100.00;52709.00;5043086;28;19927;-55
2022/01/25 02:24:49;;;;;;;;;;;;;;;-144.99;100.00;52688.63;5041934;28;19928;-58
2022/01/25 02:27:16;;;;;;;;;;;;;;;-144.99;100.00;52696.78;5045623;28;19979;-58
2022/01/25 02:29:43;;;;;;;;;;;;;;;-144.99;100.00;52704.94;5045756;28;20269;-57
2022/01/25 02:32:10;;;;;;;;;;;;;;;-144.99;100.00;52684.53;5043164;28;20480;-57
2022/01/25 02:34:36;;;;;;;;;;;;;;;-144.99;100.00;52680.47;5042722;28;19931;-56
2022/01/25 02:37:04;;;;;;;;;;;;;;;-144.99;100.00;52678.44;5045143;28;19920;-59
2022/01/25 02:39:32;;;;;;;;;;;;;;;-144.99;100.00;52713.09;5044925;28;19944;-56
2022/01/25 02:41:59;;;;;;;;;;;;;;;-144.99;100.00;52704.94;5042822;28;20273;-57
2022/01/25 02:44:27;;;;;;;;;;;;;;;-144.99;100.00;52700.84;5042931;28;20027;-59
2022/01/25 02:49:38;;;;;;;;;;;;;;;-144.99;100.00;52686.59;4997953;28;19925;-57
2022/01/25 02:52:05;;;;;;;;;;;;;;;-144.99;100.00;52729.38;5039558;28;19921;-59
2022/01/25 02:54:35;;;;;;;;;;;;;;;-144.99;100.00;52700.84;5042179;28;19947;-59
2022/01/25 02:57:02;;;;;;;;;;;;;;;-144.99;100.00;52700.84;5041491;28;20232;-57
2022/01/25 02:59:28;;;;;;;;;;;;;;;-144.99;100.00;52680.47;5045713;28;20046;-58
2022/01/25 03:01:54;;;;;;;;;;;;;;;-144.99;100.00;52704.94;5044068;28;19940;-55
2022/01/25 03:04:21;;;;;;;;;;;;;;;-144.99;100.00;52690.66;5040731;28;20289;-55
2022/01/25 03:06:48;;;;;;;;;;;;;;;-144.99;100.00;52717.16;5042669;28;19920;-55
2022/01/25 03:09:15;;;;;;;;;;;;;;;-144.99;100.00;52676.38;5045167;28;20012;-56
2022/01/25 03:11:45;;;;;;;;;;;;;;;-144.99;100.00;52684.53;5044112;28;19928;-55
2022/01/25 03:14:11;;;;;;;;;;;;;;;-144.99;100.00;52692.69;5044666;28;19986;-57
2022/01/25 03:16:42;;;;;;;;;;;;;;;-144.99;100.00;52664.16;5044392;28;20408;-56
2022/01/25 03:19:31;;;;;;;;;;;;;;;-144.99;100.00;52668.22;5038571;28;19931;-57
2022/01/25 03:21:56;;;;;;;;;;;;;;;-144.99;100.00;52692.69;5040207;28;19921;-56
2022/01/25 03:24:23;;;;;;;;;;;;;;;-144.99;100.00;52680.47;5044398;28;20617;-56
2022/01/25 03:26:51;;;;;;;;;;;;;;;-144.99;100.00;52721.22;5040106;28;20362;-57
2022/01/25 03:29:18;;;;;;;;;;;;;;;-144.99;100.00;52696.78;5042365;28;20019;-57
2022/01/25 03:31:44;;;;;;;;;;;;;;;-144.99;100.00;52676.38;5044805;28;20388;-56
2022/01/25 03:34:11;;;;;;;;;;;;;;;-144.99;100.00;52676.38;5040406;28;19955;-57
2022/01/25 03:36:37;;;;;;;;;;;;;;;-144.99;100.00;52660.09;5043666;28;19935;-60
2022/01/25 03:39:05;;;;;;;;;;;;;;;-144.99;100.00;52704.94;5042510;28;20019;-57
2022/01/25 03:41:32;;;;;;;;;;;;;;;-144.99;100.00;52670.28;5040102;28;19968;-59
2022/01/25 03:44:00;;;;;;;;;;;;;;;-144.99;100.00;52688.63;5044587;28;19920;-59
2022/01/25 03:46:34;;;;;;;;;;;;;;;-144.99;100.00;52676.38;5044775;28;19921;-59
2022/01/25 03:51:45;;;;;;;;;;;;;;;-144.99;100.00;52702.88;5043416;28;19932;-59
2022/01/25 03:54:11;;;;;;;;;;;;;;;-144.99;100.00;52684.53;5040853;28;19924;-59
2022/01/25 03:56:38;;;;;;;;;;;;;;;-144.99;100.00;52647.84;5042840;28;19920;-58
2022/01/25 03:59:07;;;;;;;;;;;;;;;-144.99;100.00;52698.81;5038609;28;20333;-57
2022/01/25 04:01:33;;;;;;;;;;;;;;;-144.99;100.00;52680.47;5041491;28;19924;-57
2022/01/25 04:04:05;;;;;;;;;;;;;;;-144.99;100.00;52680.47;5037745;28;20317;-59
2022/01/25 04:06:33;;;;;;;;;;;;;;;-144.99;100.00;52680.47;5044371;28;19939;-57
2022/01/25 04:09:00;;;;;;;;;;;;;;;-144.99;100.00;52696.78;5041795;28;20242;-58
2022/01/25 04:11:27;;;;;;;;;;;;;;;-144.99;100.00;52660.09;5046212;28;19920;-58
2022/01/25 04:13:56;;;;;;;;;;;;;;;-144.99;100.00;52692.69;5046388;28;19925;-58
2022/01/25 04:16:28;;;;;;;;;;;;;;;-144.99;100.00;52702.88;5046377;28;19928;-58
2022/01/25 04:19:02;;;;;;;;;;;;;;;-144.99;100.00;52729.38;5044869;28;19924;-57
2022/01/25 04:24:39;;;;;;;;;;;;;;;-144.99;100.00;52694.72;5045438;28;20020;-57
2022/01/25 04:27:13;;;;;;;;;;;;;;;-144.99;100.00;52688.63;5048174;28;19931;-61
2022/01/25 04:29:39;;;;;;;;;;;;;;;-144.99;100.00;52696.78;5047084;28;20035;-60
2022/01/25 04:32:10;;;;;;;;;;;;;;;-144.99;100.00;52704.94;5044819;28;19921;-60
2022/01/25 04:34:44;;;;;;;;;;;;;;;-144.99;100.00;52651.94;5046842;28;20393;-59
2022/01/25 04:51:23;;;;;;;;;;;;;;;-144.99;100.00;52672.31;5047477;28;20171;-58
2022/01/25 04:53:56;;;;;;;;;;;;;;;-144.99;100.00;52684.53;5046001;28;19921;-59
2022/01/25 04:56:28;;;;;;;;;;;;;;;-144.99;100.00;52684.53;5045530;28;20027;-59
2022/01/25 04:59:02;;;;;;;;;;;;;;;-144.99;100.00;52662.13;5045721;28;20258;-59
2022/01/25 05:01:28;;;;;;;;;;;;;;;-144.99;100.00;52653.97;5044031;28;20012;-59
2022/01/25 05:04:04;;;;;;;;;;;;;;;-144.99;100.00;52676.38;5047458;28;20361;-58
2022/01/25 05:06:31;;;;;;;;;;;;;;;-144.99;100.00;52719.19;5042367;28;19997;-59
2022/01/25 05:09:07;;;;;;;;;;;;;;;-144.99;100.00;52709.00;5046729;28;20000;-60
2022/01/25 05:11:36;;;;;;;;;;;;;;;-144.99;100.00;52700.84;5047908;28;19998;-59
2022/01/25 05:14:15;;;;;;;;;;;;;;;-144.99;100.00;52694.72;5047201;28;19959;-59
2022/01/25 05:16:50;;;;;;;;;;;;;;;-144.99;100.00;52676.38;5045286;28;20012;-61
2022/01/25 05:22:03;;;;;;;;;;;;;;;-144.99;100.00;52692.69;5043125;28;19951;-60
2022/01/25 05:22:24;;;;;;;;;;;;;;;-144.99;100.00;52664.16;5040469;28;20001;-61
2022/01/25 05:24:52;;;;;;;;;;;;;;;-144.99;100.00;52684.53;5044884;28;20369;-56
2022/01/25 05:27:20;;;;;;;;;;;;;;;-144.99;100.00;52711.03;5046642;28;19920;-59
2022/01/25 05:29:46;;;;;;;;;;;;;;;-144.99;100.00;52706.97;5045180;28;20321;-59
2022/01/25 05:32:13;;;;;;;;;;;;;;;-144.99;100.00;52672.31;5043180;28;19921;-57
2022/01/25 05:34:41;;;;;;;;;;;;;;;-144.99;100.00;52696.78;5045612;28;19927;-59
2022/01/25 05:37:08;;;;;;;;;;;;;;;-144.99;100.00;52717.16;5046440;28;19932;-57
2022/01/25 05:39:36;;;;;;;;;;;;;;;-144.99;100.00;52680.47;5046319;28;19931;-56
2022/01/25 05:42:18;;;;;;;;;;;;;;;-144.99;100.00;52692.69;5043678;28;20038;-57
2022/01/25 05:44:55;;;;;;;;;;;;;;;-144.99;100.00;52668.22;5046459;28;20022;-57
2022/01/25 05:47:26;;;;;;;;;;;;;;;-144.99;100.00;52684.53;5044204;28;20385;-56
2022/01/25 05:49:54;;;;;;;;;;;;;;;-144.99;100.00;52709.00;5041730;28;20053;-57
2022/01/25 05:52:20;;;;;;;;;;;;;;;-144.99;100.00;52696.78;5044680;28;20468;-58
2022/01/25 05:54:47;;;;;;;;;;;;;;;-144.99;100.00;52680.47;5044252;28;20131;-58
2022/01/25 05:57:13;;;;;;;;;;;;;;;-144.99;100.00;52676.38;5045353;28;19928;-61
2022/01/25 05:59:39;;;;;;;;;;;;;;;-144.99;100.00;52668.22;5044862;28;20144;-62
2022/01/25 06:02:06;;;;;;;;;;;;;;;-144.99;100.00;52684.53;5039903;28;20306;-60
2022/01/25 06:04:33;;;;;;;;;;;;;;;-144.99;100.00;52678.44;5045630;28;19924;-59
2022/01/25 06:07:01;;;;;;;;;;;;;;;-144.99;100.00;52684.53;5044802;28;19982;-60
2022/01/25 06:09:27;;;;;;;;;;;;;;;-144.99;100.00;52692.69;5044260;28;19995;-59
2022/01/25 06:11:54;;;;;;;;;;;;;;;-144.99;100.00;52686.59;5041787;28;19920;-60
2022/01/25 06:14:20;;;;;;;;;;;;;;;-144.99;100.00;52704.94;5045544;28;20003;-59
2022/01/25 06:16:47;;;;;;;;;;;;;;;-144.99;100.00;52694.72;5046106;28;20389;-59
2022/01/25 06:19:13;;;;;;;;;;;;;;;-144.99;100.00;52660.09;5043014;28;19920;-59
2022/01/25 06:21:40;;;;;;;;;;;;;;;-144.99;100.00;52696.78;5045450;28;19921;-60
2022/01/25 06:24:08;;;;;;;;;;;;;;;-144.99;100.00;52678.44;5045954;28;20263;-59
2022/01/25 06:26:34;;;;;;;;;;;;;;;-144.99;100.00;52721.22;5043859;28;20608;-59
2022/01/25 06:29:01;;;;;;;;;;;;;;;-144.99;100.00;52723.28;5043954;28;20019;-60
2022/01/25 06:31:28;;;;;;;;;;;;;;;-144.99;100.00;52627.47;5043907;28;20381;-60
2022/01/25 06:33:54;;;;;;;;;;;;;;;-144.99;100.00;52700.84;5043008;28;20031;-59
2022/01/25 06:36:20;;;;;;;;;;;;;;;-144.99;100.00;52664.16;5042674;28;19938;-59
2022/01/25 06:38:50;;;;;;;;;;;;;;;-144.99;100.00;52709.00;5042905;28;19924;-59
2022/01/25 06:41:18;;;;;;;;;;;;;;;-144.99;100.00;52696.78;5044946;28;19931;-60
2022/01/25 06:43:44;;;;;;;;;;;;;;;-144.99;100.00;52696.78;5046019;28;20019;-61
2022/01/25 06:46:11;;;;;;;;;;;;;;;-144.99;100.00;52676.38;5042609;28;20247;-63
2022/01/25 06:48:37;;;;;;;;;;;;;;;-144.99;100.00;52664.16;5043497;28;19929;-62
2022/01/25 06:51:05;;;;;;;;;;;;;;;-144.99;100.00;52672.31;5041821;28;19932;-61
2022/01/25 06:53:32;;;;;;;;;;;;;;;-144.99;100.00;52656.00;5043307;28;19924;-61
2022/01/25 06:55:58;;;;;;;;;;;;;;;-144.99;100.00;52668.22;5039559;28;19920;-60
2022/01/25 06:58:26;;;;;;;;;;;;;;;-144.99;100.00;52682.50;5046161;28;19929;-64
2022/01/25 07:00:52;;;;;;;;;;;;;;;-144.99;100.00;52684.53;5041784;28;20753;-68
2022/01/25 07:03:19;;;;;;;;;;;;;;;-144.99;100.00;52676.38;5043001;28;20011;-62
2022/01/25 07:05:45;;;;;;;;;;;;;;;-144.99;100.00;52647.84;5046358;28;19928;-64
2022/01/25 07:08:11;;;;;;;;;;;;;;;-144.99;100.00;52704.94;5043830;28;19931;-61
2022/01/25 07:10:38;;;;;;;;;;;;;;;-144.99;100.00;52639.69;5044309;28;19927;-62
2022/01/25 07:13:04;;;;;;;;;;;;;;;-144.99;100.00;52676.38;5043453;28;19936;-62
2022/01/25 07:15:32;;;;;;;;;;;;;;;-144.99;100.00;52692.69;5042401;28;19921;-62
2022/01/25 07:17:58;;;;;;;;;;;;;;;-144.99;100.00;52702.88;5045394;28;19920;-62
2022/01/25 07:20:25;;;;;;;;;;;;;;;-144.99;100.00;52686.59;5044532;28;19931;-63
2022/01/25 07:22:52;;;;;;;;;;;;;;;-144.99;100.00;52676.38;5044629;28;19927;-63
2022/01/25 07:25:19;;;;;;;;;;;;;;;-144.99;100.00;52664.16;5045543;28;20376;-63
2022/01/25 07:27:45;;;;;;;;;;;;;;;-144.99;100.00;52680.47;5045324;28;20059;-65
2022/01/25 07:30:12;;;;;;;;;;;;;;;-144.99;100.00;52647.84;5046806;28;19943;-66
2022/01/25 07:32:40;;;;;;;;;;;;;;;-144.99;100.00;52700.84;5048816;28;19921;-65
2022/01/25 07:35:06;;;;;;;;;;;;;;;-144.99;100.00;52656.00;5043818;28;19946;-64
2022/01/25 07:37:33;;;;;;;;;;;;;;;-144.99;100.00;52704.94;5044734;28;19921;-65
2022/01/25 07:42:46;;;;;;;;;;;;;;;-144.99;100.00;52668.22;5021779;28;19925;-75
2022/01/25 07:45:13;;;;;;;;;;;;;;;-144.99;100.00;52651.94;5027192;28;21391;-75
2022/01/25 07:47:40;;;;;;;;;;;;;;;-144.99;100.00;52688.63;5030785;28;19928;-75
2022/01/25 07:50:08;;;;;;;;;;;;;;;-144.99;100.00;52672.31;5027558;28;20314;-75
2022/01/25 07:52:34;;;;;;;;;;;;;;;-144.99;100.00;52676.38;5028728;28;20355;-75
2022/01/25 07:55:00;;;;;;;;;;;;;;;-144.99;100.00;52692.69;5036503;28;19924;-74
2022/01/25 07:57:27;;;;;;;;;;;;;;;-144.99;100.00;52682.50;5029180;28;20384;-75
2022/01/25 07:59:53;;;;;;;;;;;;;;;-144.99;100.00;52643.78;5030793;28;19928;-75
2022/01/25 08:02:20;;;;;;;;;;;;;;;-144.99;100.00;52668.22;5033086;28;19921;-75
2022/01/25 08:04:48;;;;;;;;;;;;;;;-144.99;100.00;52664.16;5034630;28;19940;-75
2022/01/25 08:07:14;;;;;;;;;;;;;;;-144.99;100.00;52656.00;5033343;28;19925;-75
2022/01/25 08:09:41;;;;;;;;;;;;;;;-144.99;100.00;52690.66;5036191;28;19956;-75
2022/01/25 08:12:09;;;;;;;;;;;;;;;-144.99;100.00;52668.22;5032126;28;20171;-75
2022/01/25 08:14:35;;;;;;;;;;;;;;;-144.99;100.00;52688.63;5027013;28;19964;-75
2022/01/25 08:17:01;;;;;;;;;;;;;;;-144.99;100.00;52662.13;5022397;28;19945;-75
2022/01/25 08:19:28;;;;;;;;;;;;;;;-144.99;100.00;52702.88;5026937;28;19928;-75
2022/01/25 08:21:55;;;;;;;;;;;;;;;-144.99;100.00;52688.63;5034015;28;19932;-75
2022/01/25 08:24:22;;;;;;;;;;;;;;;-144.99;100.00;52674.34;5022066;28;20384;-75
2022/01/25 08:26:49;;;;;;;;;;;;;;;-144.99;100.00;52656.00;5032024;28;20009;-75
2022/01/25 08:29:15;;;;;;;;;;;;;;;-144.99;100.00;52690.66;5034228;28;19921;-75
2022/01/25 08:31:42;;;;;;;;;;;;;;;-144.99;100.00;52639.69;5033354;28;19921;-74
2022/01/25 08:34:08;;;;;;;;;;;;;;;-144.99;100.00;52656.00;5035125;28;20043;-75
2022/01/25 08:36:35;;;;;;;;;;;;;;;-144.99;100.00;52639.69;5035789;28;19921;-75
2022/01/25 08:39:04;;;;;;;;;;;;;;;-144.99;100.00;52619.31;5034920;28;20277;-75
2022/01/25 08:41:30;;;;;;;;;;;;;;;-144.99;100.00;52639.69;5035540;28;20003;-75
2022/01/25 08:43:56;;;;;;;;;;;;;;;-144.99;100.00;52656.00;5044936;28;19928;-75
2022/01/25 08:46:23;;;;;;;;;;;;;;;-144.99;100.00;52678.44;5038709;28;20411;-75
2022/01/25 08:48:50;;;;;;;;;;;;;;;-144.99;100.00;52680.47;5034555;28;19932;-75
2022/01/25 08:51:16;;;;;;;;;;;;;;;-144.99;100.00;52682.50;5033134;28;20028;-74
2022/01/25 08:53:43;;;;;;;;;;;;;;;-144.99;100.00;52643.78;5022434;28;20410;-73
2022/01/25 08:56:11;;;;;;;;;;;;;;;-144.99;100.00;52692.69;5031782;28;19922;-74
2022/01/25 08:58:38;;;;;;;;;;;;;;;-144.99;100.00;52645.81;5027584;28;19928;-74
2022/01/25 09:01:04;;;;;;;;;;;;;;;-144.99;100.00;52725.31;5030004;28;19932;-75
2022/01/25 09:03:31;;;;;;;;;;;;;;;-144.99;100.00;52653.97;5032941;28;19921;-73
2022/01/25 09:05:57;;;;;;;;;;;;;;;-144.99;100.00;52680.47;5032732;28;19928;-74
2022/01/25 09:08:26;;;;;;;;;;;;;;;-144.99;100.00;52704.94;5032830;28;19925;-74
2022/01/25 09:10:57;;;;;;;;;;;;;;;-144.99;100.00;52676.38;5027323;28;19983;-74
2022/01/25 09:13:25;;;;;;;;;;;;;;;-144.99;100.00;52676.38;5028675;28;20308;-75
2022/01/25 09:15:53;;;;;;;;;;;;;;;-144.99;100.00;52662.13;5033569;28;19925;-74
2022/01/25 09:18:19;;;;;;;;;;;;;;;-144.99;100.00;52684.53;5033421;28;19921;-75
2022/01/25 09:20:46;;;;;;;;;;;;;;;-144.99;100.00;52625.44;5027143;28;19928;-75
2022/01/25 09:23:24;;;;;;;;;;;;;;;-144.99;100.00;52637.66;5029204;28;19922;-74
2022/01/25 09:25:51;;;;;;;;;;;;;;;-144.99;100.00;52660.09;5028260;28;20308;-74
2022/01/25 09:28:17;;;;;;;;;;;;;;;-144.99;100.00;52672.31;5031335;28;19933;-74
2022/01/25 09:30:45;;;;;;;;;;;;;;;-144.99;100.00;52656.00;5026847;28;19928;-74
2022/01/25 09:33:12;;;;;;;;;;;;;;;-144.99;100.00;52696.78;5030812;28;19925;-73
2022/01/25 09:35:38;;;;;;;;;;;;;;;-144.99;100.00;52698.81;5033649;28;19927;-74
2022/01/25 09:38:05;;;;;;;;;;;;;;;-144.99;100.00;52635.63;5033487;28;20327;-74
2022/01/25 09:40:32;;;;;;;;;;;;;;;-144.99;100.00;52688.63;5032895;28;19924;-74
2022/01/25 09:42:59;;;;;;;;;;;;;;;-144.99;100.00;52647.84;5033609;28;19925;-74
2022/01/25 09:45:25;;;;;;;;;;;;;;;-144.99;100.00;52676.38;5032273;28;19921;-74
2022/01/25 09:47:53;;;;;;;;;;;;;;;-144.99;100.00;52651.94;5033249;28;19928;-74
2022/01/25 09:50:20;;;;;;;;;;;;;;;-144.99;100.00;52670.28;5033155;28;19936;-75
2022/01/25 09:52:47;;;;;;;;;;;;;;;-144.99;100.00;52668.22;5033017;28;19921;-73
2022/01/25 09:55:14;;;;;;;;;;;;;;;-144.99;100.00;52656.00;5034048;28;19921;-73
2022/01/25 09:57:41;;;;;;;;;;;;;;;-144.99;100.00;52680.47;5032362;28;20285;-73
2022/01/25 10:00:09;;;;;;;;;;;;;;;-144.99;100.00;52647.84;5045984;28;19921;-73
2022/01/25 10:02:44;;;;;;;;;;;;;;;-144.99;100.00;52700.84;5044407;28;19925;-73
2022/01/25 10:05:24;;;;;;;;;;;;;;;-144.99;100.00;52688.63;5032605;28;19993;-73
2022/01/25 10:07:57;;;;;;;;;;;;;;;-144.99;100.00;52668.22;5033128;28;19978;-73
2022/01/25 10:10:24;;;;;;;;;;;;;;;-144.99;100.00;52684.53;5022010;28;19921;-73
2022/01/25 10:12:51;;;;;;;;;;;;;;;-144.99;100.00;52635.63;5033611;28;19975;-73
2022/01/25 10:15:17;;;;;;;;;;;;;;;-144.99;100.00;52623.38;5032760;28;20012;-73
2022/01/25 10:17:45;;;;;;;;;;;;;;;-144.99;100.00;52651.94;5032809;28;19921;-74
2022/01/25 10:20:26;;;;;;;;;;;;;;;-144.99;100.00;52692.69;5031521;28;19941;-73
2022/01/25 10:22:52;;;;;;;;;;;;;;;-144.99;100.00;52680.47;5032374;28;19924;-73
2022/01/25 10:25:28;;;;;;;;;;;;;;;-144.99;100.00;52709.00;5036582;28;19920;-74
2022/01/25 10:28:03;;;;;;;;;;;;;;;-144.99;100.00;52660.09;5033454;28;19928;-73
2022/01/25 10:30:36;;;;;;;;;;;;;;;-144.99;100.00;52698.81;5034600;28;19979;-73
2022/01/25 10:33:03;;;;;;;;;;;;;;;-144.99;100.00;52635.63;5033783;28;19933;-73
2022/01/25 10:35:31;;;;;;;;;;;;;;;-144.99;100.00;52631.53;5034139;28;20035;-73
2022/01/25 10:37:57;;;;;;;;;;;;;;;-144.99;100.00;52688.63;5035463;28;19921;-73
2022/01/25 10:40:35;;;;;;;;;;;;;;;-144.99;100.00;52656.00;5034568;28;19921;-74
2022/01/25 10:43:01;;;;;;;;;;;;;;;-144.99;100.00;52631.53;5034686;28;19921;-73
2022/01/25 10:45:28;;;;;;;;;;;;;;;-144.99;100.00;52651.94;5035734;28;19921;-73
2022/01/25 10:47:55;;;;;;;;;;;;;;;-144.99;100.00;52676.38;5034904;28;20008;-73
2022/01/25 10:50:22;;;;;;;;;;;;;;;-144.99;100.00;52651.94;5033438;28;20019;-73
2022/01/25 10:53:03;;;;;;;;;;;;;;;-144.99;100.00;52631.53;5032940;28;20304;-74
2022/01/25 10:55:36;;;;;;;;;;;;;;;-144.99;100.00;52656.00;5031844;28;19928;-74
2022/01/25 10:58:03;;;;;;;;;;;;;;;-144.99;100.00;52680.47;5032437;28;19921;-74
2022/01/25 11:00:32;;;;;;;;;;;;;;;-144.99;100.00;52651.94;5033131;28;19920;-74
2022/01/25 11:02:58;;;;;;;;;;;;;;;-144.99;100.00;52651.94;5033004;28;19947;-74
2022/01/25 11:05:25;;;;;;;;;;;;;;;-144.99;100.00;52678.44;5031938;28;19921;-74
2022/01/25 11:07:53;;;;;;;;;;;;;;;-144.99;100.00;52656.00;5033533;28;20308;-75
2022/01/25 11:10:21;;;;;;;;;;;;;;;-144.99;100.00;52664.16;5024175;28;19927;-74
2022/01/25 11:13:00;;;;;;;;;;;;;;;-144.99;100.00;52647.84;5032276;28;19921;-74
2022/01/25 11:15:27;;;;;;;;;;;;;;;-144.99;100.00;52635.63;5032051;28;20288;-74
2022/01/25 11:17:53;;;;;;;;;;;;;;;-144.99;100.00;52647.84;5032023;28;20349;-75
2022/01/25 11:20:20;;;;;;;;;;;;;;;-144.99;100.00;52660.09;5033316;28;19932;-74
2022/01/25 11:22:46;;;;;;;;;;;;;;;-144.99;100.00;52680.47;5031371;28;20011;-74
2022/01/25 11:25:18;;;;;;;;;;;;;;;-144.99;100.00;52678.44;5021200;28;19921;-74
2022/01/25 11:27:45;;;;;;;;;;;;;;;-144.99;100.00;52651.94;5032687;28;20027;-74
2022/01/25 11:30:15;;;;;;;;;;;;;;;-144.99;100.00;52635.63;5035929;28;19928;-74
2022/01/25 11:32:43;;;;;;;;;;;;;;;-144.99;100.00;52660.09;5035395;28;19921;-73
2022/01/25 11:35:12;;;;;;;;;;;;;;;-144.99;100.00;52631.53;5036117;28;19921;-74
2022/01/25 11:37:43;;;;;;;;;;;;;;;-144.99;100.00;52662.13;5038308;28;19987;-73
2022/01/25 11:40:25;;;;;;;;;;;;;;;-144.99;100.00;52647.84;5036106;28;19920;-73
2022/01/25 11:42:53;;;;;;;;;;;;;;;-144.99;100.00;52623.38;5036086;28;20385;-74
2022/01/25 11:45:21;;;;;;;;;;;;;;;-144.99;100.00;52625.44;5036114;28;19944;-74
2022/01/25 11:47:48;;;;;;;;;;;;;;;-144.99;100.00;52590.78;5036271;28;19975;-74
2022/01/25 11:50:14;;;;;;;;;;;;;;;-144.99;100.00;52656.00;5035384;28;19925;-74
2022/01/25 11:52:47;;;;;;;;;;;;;;;-144.99;100.00;52643.78;5036170;28;19928;-74
2022/01/25 11:55:21;;;;;;;;;;;;;;;-144.99;100.00;52656.00;5036489;28;19925;-74
2022/01/25 11:57:50;;;;;;;;;;;;;;;-144.99;100.00;52645.81;5030146;28;20429;-73
2022/01/25 12:00:17;;;;;;;;;;;;;;;-144.99;100.00;52643.78;5035407;28;20253;-74
2022/01/25 12:02:44;;;;;;;;;;;;;;;-144.99;100.00;52611.16;5035766;28;19921;-75
2022/01/25 12:05:11;;;;;;;;;;;;;;;-144.99;100.00;52676.38;5035476;28;19921;-74
2022/01/25 12:07:41;;;;;;;;;;;;;;;-144.99;100.00;52635.63;5035231;28;19948;-74
2022/01/25 12:10:34;;;;;;;;;;;;;;;-144.99;100.00;52609.13;5026835;28;20072;-74
2022/01/25 12:13:16;;;;;;;;;;;;;;;-144.99;100.00;52686.59;5035643;28;19927;-75
2022/01/25 12:15:43;;;;;;;;;;;;;;;-144.99;100.00;52623.38;5035194;28;19963;-75
2022/01/25 12:18:10;;;;;;;;;;;;;;;-144.99;100.00;52668.22;5036250;28;19929;-75
2022/01/25 12:20:47;;;;;;;;;;;;;;;-144.99;100.00;52660.09;5035111;28;19971;-74
2022/01/25 12:23:18;;;;;;;;;;;;;;;-144.99;100.00;52656.00;5031123;28;19921;-74
2022/01/25 12:25:50;;;;;;;;;;;;;;;-144.99;100.00;52643.78;5034971;28;19929;-74
2022/01/25 12:28:27;;;;;;;;;;;;;;;-144.99;100.00;52639.69;5035175;28;19967;-74
2022/01/25 12:30:54;;;;;;;;;;;;;;;-144.99;100.00;52621.34;5035259;28;19930;-75
2022/01/25 12:33:22;;;;;;;;;;;;;;;-144.99;100.00;52660.09;5035194;28;19927;-74
2022/01/25 12:35:54;;;;;;;;;;;;;;;-144.99;100.00;52647.84;5034733;28;19921;-74
2022/01/25 12:38:23;;;;;;;;;;;;;;;-144.99;100.00;52660.09;5035225;28;19928;-75
2022/01/25 12:41:06;;;;;;;;;;;;;;;-144.99;100.00;52647.84;5034674;28;20008;-75
2022/01/25 12:43:35;;;;;;;;;;;;;;;-144.99;100.00;52668.22;5035001;28;19984;-74
2022/01/25 12:46:03;;;;;;;;;;;;;;;-144.99;100.00;52668.22;5035382;28;20011;-74
2022/01/25 12:48:30;;;;;;;;;;;;;;;-144.99;100.00;52639.69;5035714;28;20376;-75
2022/01/25 12:50:59;;;;;;;;;;;;;;;-144.99;100.00;52635.63;5034385;28;20289;-74
2022/01/25 12:53:26;;;;;;;;;;;;;;;-144.99;100.00;52603.00;5034539;28;20407;-75
2022/01/25 12:55:53;;;;;;;;;;;;;;;-144.99;100.00;52625.44;5034395;28;20023;-73
2022/01/25 12:58:21;;;;;;;;;;;;;;;-144.99;100.00;52639.69;5031838;28;20296;-74
2022/01/25 13:00:51;;;;;;;;;;;;;;;-144.99;100.00;52623.38;5033779;28;19928;-75
2022/01/25 13:03:20;;;;;;;;;;;;;;;-144.99;100.00;52635.63;5033996;28;19943;-73
2022/01/25 13:05:47;;;;;;;;;;;;;;;-144.99;100.00;52656.00;5033977;28;20389;-74
2022/01/25 13:08:14;;;;;;;;;;;;;;;-144.99;100.00;52629.50;5034294;28;19921;-73
2022/01/25 13:10:41;;;;;;;;;;;;;;;-144.99;100.00;52635.63;5026027;28;19921;-75
2022/01/25 13:13:21;;;;;;;;;;;;;;;-144.99;100.00;52631.53;5035323;28;20044;-74
2022/01/25 13:15:56;;;;;;;;;;;;;;;-144.99;100.00;52631.53;5033660;28;20295;-74
2022/01/25 13:18:25;;;;;;;;;;;;;;;-144.99;100.00;52696.78;5033866;28;19927;-74
2022/01/25 13:20:59;;;;;;;;;;;;;;;-144.99;100.00;52635.63;5033223;28;19921;-74
2022/01/25 13:23:25;;;;;;;;;;;;;;;-144.99;100.00;52613.19;5029481;28;19929;-74
2022/01/25 13:25:55;;;;;;;;;;;;;;;-144.99;100.00;52672.31;5033765;28;19921;-74
2022/01/25 13:28:34;;;;;;;;;;;;;;;-144.99;100.00;52639.69;5033810;28;20021;-74
2022/01/25 13:31:00;;;;;;;;;;;;;;;-144.99;100.00;52656.00;5034254;28;19956;-74
2022/01/25 13:33:29;;;;;;;;;;;;;;;-144.99;100.00;52651.94;5034073;28;19928;-74
2022/01/25 13:35:56;;;;;;;;;;;;;;;-144.99;100.00;52651.94;5034132;28;19979;-75
2022/01/25 13:38:24;;;;;;;;;;;;;;;-144.99;100.00;52660.09;5033766;28;19921;-75
2022/01/25 13:40:55;;;;;;;;;;;;;;;-144.99;100.00;52647.84;5032303;28;20347;-74